createdAt,value
2022-11-24T00:01:26.011Z,12.30
2022-11-24T00:04:00.222Z,11.40
2022-11-24T00:06:30.266Z,11.40
2022-11-24T00:08:58.996Z,9.60
2022-11-24T00:11:31.684Z,11.40
2022-11-24T00:14:00.514Z,11.30
2022-11-24T00:16:34.418Z,9.10
2022-11-24T00:19:04.687Z,9.70
2022-11-24T00:21:32.642Z,11.60
2022-11-24T00:24:01.329Z,10.80
2022-11-24T00:26:31.917Z,10.70
2022-11-24T00:29:03.269Z,12.50
2022-11-24T00:31:37.230Z,10.70
2022-11-24T00:34:07.797Z,11.40
2022-11-24T00:36:37.178Z,9.60
2022-11-24T00:39:12.287Z,10.80
2022-11-24T00:41:41.133Z,8.90
2022-11-24T00:44:09.336Z,10.30
2022-11-24T00:46:37.930Z,9.20
2022-11-24T00:49:06.210Z,10.00
2022-11-24T00:51:34.277Z,10.10
2022-11-24T00:54:02.548Z,8.60
2022-11-24T00:56:30.959Z,9.50
2022-11-24T00:58:59.092Z,9.20
2022-11-24T01:01:31.185Z,11.40
2022-11-24T01:04:02.081Z,11.40
2022-11-24T01:06:31.094Z,8.40
2022-11-24T01:08:58.987Z,9.80
2022-11-24T01:11:28.231Z,7.50
2022-11-24T01:13:58.601Z,6.20
2022-11-24T01:16:31.035Z,5.20
2022-11-24T01:19:00.142Z,5.80
2022-11-24T01:21:27.978Z,6.10
2022-11-24T01:23:55.916Z,6.00
2022-11-24T01:26:23.782Z,5.10
2022-11-24T01:28:56.389Z,6.70
2022-11-24T01:31:26.012Z,5.60
2022-11-24T01:33:54.515Z,7.50
2022-11-24T01:36:23.052Z,6.30
2022-11-24T01:38:51.977Z,7.90
2022-11-24T01:41:22.683Z,5.70
2022-11-24T01:43:52.196Z,5.70
2022-11-24T01:46:43.508Z,5.20
2022-11-24T01:49:21.819Z,5.60
2022-11-24T01:52:05.468Z,6.60
2022-11-24T01:54:38.681Z,5.20
2022-11-24T01:57:27.491Z,5.00
2022-11-24T02:00:02.043Z,5.40
2022-11-24T02:02:43.954Z,5.30
2022-11-24T02:05:29.805Z,5.70
2022-11-24T02:08:01.083Z,4.90
2022-11-24T02:10:29.818Z,5.40
2022-11-24T02:13:00.368Z,5.70
2022-11-24T02:15:28.829Z,5.50
2022-11-24T02:17:59.051Z,4.50
2022-11-24T02:20:27.008Z,5.00
2022-11-24T02:23:09.780Z,5.50
2022-11-24T02:26:08.412Z,4.60
2022-11-24T02:28:40.281Z,5.10
2022-11-24T02:31:08.914Z,6.30
2022-11-24T02:33:37.704Z,6.60
2022-11-24T02:36:05.924Z,5.00
2022-11-24T02:38:35.594Z,5.70
2022-11-24T02:41:07.771Z,5.70
2022-11-24T02:43:42.634Z,5.30
2022-11-24T02:46:10.931Z,5.00
2022-11-24T02:48:39.295Z,5.30
2022-11-24T02:51:07.136Z,4.60
2022-11-24T02:53:35.302Z,7.20
2022-11-24T02:56:03.380Z,4.80
2022-11-24T02:58:31.346Z,4.40
2022-11-24T03:00:59.893Z,4.30
2022-11-24T03:03:28.059Z,3.20
2022-11-24T03:05:55.988Z,3.80
2022-11-24T03:08:23.885Z,2.70
2022-11-24T03:10:51.858Z,3.00
2022-11-24T03:13:19.704Z,2.70
2022-11-24T03:15:47.625Z,3.30
2022-11-24T03:18:15.569Z,3.30
2022-11-24T03:20:44.253Z,2.60
2022-11-24T03:23:12.189Z,1.60
2022-11-24T03:25:40.596Z,1.90
2022-11-24T03:28:08.493Z,1.60
2022-11-24T03:30:36.385Z,1.90
2022-11-24T03:33:05.121Z,2.00
2022-11-24T03:35:33.090Z,2.30
2022-11-24T03:38:00.994Z,3.30
2022-11-24T03:40:28.863Z,1.90
2022-11-24T03:42:57.167Z,3.50
2022-11-24T03:48:13.622Z,4.80
2022-11-24T03:50:41.550Z,4.30
2022-11-24T03:53:09.495Z,4.80
2022-11-24T03:55:37.353Z,5.70
2022-11-24T03:58:05.244Z,3.50
2022-11-24T04:00:33.178Z,3.60
2022-11-24T04:03:00.995Z,3.10
2022-11-24T04:05:29.121Z,4.20
2022-11-24T04:07:57.662Z,7.10
2022-11-24T04:10:25.531Z,7.00
2022-11-24T04:12:53.395Z,4.70
2022-11-24T04:15:22.308Z,4.50
2022-11-24T04:17:50.867Z,4.30
2022-11-24T04:20:18.926Z,5.40
2022-11-24T04:22:46.838Z,4.20
2022-11-24T04:25:17.480Z,3.10
2022-11-24T04:27:45.809Z,3.80
2022-11-24T04:30:13.619Z,2.30
2022-11-24T04:32:41.437Z,2.10
2022-11-24T04:35:09.427Z,1.30
2022-11-24T04:37:37.569Z,2.70
2022-11-24T04:40:07.570Z,2.20
2022-11-24T04:42:35.574Z,2.90
2022-11-24T04:45:04.950Z,3.10
2022-11-24T04:47:33.114Z,3.70
2022-11-24T04:50:01.157Z,4.70
2022-11-24T04:52:30.377Z,3.00
2022-11-24T04:54:58.261Z,5.20
2022-11-24T04:57:27.164Z,7.00
2022-11-24T04:59:55.415Z,5.00
2022-11-24T05:02:23.486Z,5.00
2022-11-24T05:04:51.501Z,4.30
2022-11-24T05:07:19.837Z,4.10
2022-11-24T05:10:06.437Z,3.10
2022-11-24T05:12:34.424Z,7.30
2022-11-24T05:15:04.605Z,4.60
2022-11-24T05:17:35.374Z,4.30
2022-11-24T05:20:06.011Z,3.30
2022-11-24T05:22:34.339Z,4.50
2022-11-24T05:25:02.502Z,5.60
2022-11-24T05:27:30.680Z,4.60
2022-11-24T05:29:59.056Z,4.10
2022-11-24T05:32:27.100Z,4.20
2022-11-24T05:34:55.319Z,4.30
2022-11-24T05:37:25.601Z,4.20
2022-11-24T05:39:54.788Z,5.00
2022-11-24T05:42:46.091Z,5.60
2022-11-24T05:45:18.766Z,3.20
2022-11-24T05:50:17.161Z,5.80
2022-11-24T05:52:45.528Z,4.80
2022-11-24T05:55:15.184Z,8.30
2022-11-24T05:57:43.685Z,5.60
2022-11-24T06:00:12.442Z,6.20
2022-11-24T06:02:41.028Z,4.60
2022-11-24T06:05:09.416Z,4.20
2022-11-24T06:07:37.573Z,5.00
2022-11-24T06:10:05.949Z,4.80
2022-11-24T06:12:33.786Z,7.60
2022-11-24T06:15:02.218Z,4.50
2022-11-24T06:17:30.129Z,4.70
2022-11-24T06:19:58.015Z,7.60
2022-11-24T06:22:25.938Z,6.10
2022-11-24T06:24:53.930Z,8.70
2022-11-24T06:27:21.912Z,13.40
2022-11-24T06:29:49.819Z,8.20
2022-11-24T06:32:18.046Z,20.00
2022-11-24T06:34:46.078Z,15.10
2022-11-24T06:37:14.060Z,21.00
2022-11-24T06:39:42.595Z,21.90
2022-11-24T06:42:10.526Z,13.40
2022-11-24T06:44:39.481Z,11.40
2022-11-24T06:47:07.436Z,6.80
2022-11-24T06:49:35.416Z,9.80
2022-11-24T06:52:03.440Z,10.60
2022-11-24T06:54:31.669Z,11.20
2022-11-24T06:57:00.329Z,12.20
2022-11-24T06:59:28.282Z,30.90
2022-11-24T07:01:56.215Z,33.50
2022-11-24T07:04:24.083Z,14.20
2022-11-24T07:06:52.036Z,11.40
2022-11-24T07:09:19.967Z,7.90
2022-11-24T07:11:47.886Z,16.00
2022-11-24T07:14:15.876Z,8.90
2022-11-24T07:16:43.790Z,7.70
2022-11-24T07:19:11.988Z,8.60
2022-11-24T07:21:39.868Z,9.60
2022-11-24T07:24:07.963Z,8.50
2022-11-24T07:26:37.538Z,8.20
2022-11-24T07:29:06.077Z,8.10
2022-11-24T07:31:34.210Z,6.20
2022-11-24T07:34:02.249Z,15.70
2022-11-24T07:36:30.155Z,8.80
2022-11-24T07:38:58.667Z,6.10
2022-11-24T07:41:27.023Z,8.60
2022-11-24T07:43:55.819Z,12.30
2022-11-24T07:46:23.892Z,12.30
2022-11-24T07:48:52.033Z,11.00
2022-11-24T07:51:20.022Z,11.50
2022-11-24T07:53:47.900Z,13.60
2022-11-24T07:56:15.804Z,14.10
2022-11-24T07:58:45.091Z,12.20
2022-11-24T08:01:19.423Z,11.90
2022-11-24T08:03:47.544Z,7.40
2022-11-24T08:06:29.989Z,8.10
2022-11-24T08:09:00.555Z,6.80
2022-11-24T08:11:28.590Z,7.20
2022-11-24T08:13:57.819Z,10.60
2022-11-24T08:16:25.860Z,12.50
2022-11-24T08:18:55.501Z,12.80
2022-11-24T08:21:25.692Z,13.20
2022-11-24T08:23:54.941Z,28.90
2022-11-24T08:26:24.875Z,17.30
2022-11-24T08:28:58.590Z,10.80
2022-11-24T08:31:33.837Z,16.40
2022-11-24T08:34:03.816Z,13.70
2022-11-24T08:36:33.244Z,11.20
2022-11-24T08:39:01.713Z,8.50
2022-11-24T08:41:30.841Z,9.10
2022-11-24T08:43:58.814Z,10.20
2022-11-24T08:46:26.694Z,7.30
2022-11-24T08:48:55.340Z,9.80
2022-11-24T08:51:26.089Z,6.70
2022-11-24T08:53:59.021Z,6.70
2022-11-24T08:56:29.634Z,13.60
2022-11-24T08:58:58.132Z,9.20
2022-11-24T09:01:26.884Z,13.10
2022-11-24T09:03:55.100Z,5.90
2022-11-24T09:06:26.583Z,15.60
2022-11-24T09:08:55.687Z,9.80
2022-11-24T09:11:25.900Z,8.90
2022-11-24T09:13:55.218Z,6.50
2022-11-24T09:16:26.161Z,9.60
2022-11-24T09:21:27.171Z,6.30
2022-11-24T09:23:55.710Z,7.90
2022-11-24T09:26:26.727Z,6.80
2022-11-24T09:31:26.337Z,6.30
2022-11-24T09:36:23.853Z,5.00
2022-11-24T09:38:52.643Z,7.10
2022-11-24T09:41:44.600Z,6.10
2022-11-24T09:44:31.394Z,7.40
2022-11-24T09:47:17.260Z,12.90
2022-11-24T09:49:56.428Z,8.70
2022-11-24T09:52:53.208Z,7.00
2022-11-24T09:55:51.935Z,8.00
2022-11-24T09:58:43.067Z,6.30
2022-11-24T10:01:26.261Z,5.70
2022-11-24T10:03:55.047Z,3.80
2022-11-24T10:06:31.194Z,3.50
2022-11-24T10:09:37.146Z,6.00
2022-11-24T10:12:05.393Z,6.90
2022-11-24T10:14:59.064Z,8.10
2022-11-24T10:17:51.403Z,7.20
2022-11-24T10:20:38.497Z,7.00
2022-11-24T10:23:27.091Z,8.50
2022-11-24T10:25:59.364Z,10.00
2022-11-24T10:28:42.367Z,9.00
2022-11-24T10:31:24.768Z,6.10
2022-11-24T10:33:52.674Z,8.70
2022-11-24T10:37:03.109Z,11.60
2022-11-24T10:39:36.002Z,16.20
2022-11-24T10:42:10.217Z,16.40
2022-11-24T10:44:41.118Z,16.80
2022-11-24T10:47:20.310Z,8.20
2022-11-24T10:50:09.342Z,5.50
2022-11-24T10:52:43.163Z,4.40
2022-11-24T10:55:11.154Z,3.40
2022-11-24T10:57:40.745Z,5.90
2022-11-24T11:00:20.895Z,6.50
2022-11-24T11:02:51.050Z,6.00
2022-11-24T11:05:44.008Z,6.90
2022-11-24T11:08:17.475Z,5.10
2022-11-24T11:10:46.730Z,6.50
2022-11-24T11:13:27.394Z,7.30
2022-11-24T11:15:57.659Z,10.20
2022-11-24T11:18:32.869Z,12.40
2022-11-24T11:21:02.502Z,13.30
2022-11-24T11:23:34.938Z,15.70
2022-11-24T11:26:24.727Z,10.30
2022-11-24T11:35:04.180Z,6.40
2022-11-24T11:37:33.645Z,6.80
2022-11-24T11:40:01.997Z,6.10
2022-11-24T11:43:00.920Z,6.20
2022-11-24T11:45:28.024Z,8.20
2022-11-24T11:47:59.170Z,9.50
2022-11-24T11:50:47.373Z,6.70
2022-11-24T11:53:34.095Z,11.00
2022-11-24T11:56:25.826Z,8.60
2022-11-24T11:59:00.314Z,11.10
2022-11-24T12:01:38.038Z,8.70
2022-11-24T12:04:44.336Z,7.70
2022-11-24T12:07:57.091Z,12.10
2022-11-24T12:10:37.013Z,11.80
2022-11-24T12:13:13.932Z,10.80
2022-11-24T12:15:49.690Z,11.20
2022-11-24T12:18:55.861Z,11.80
2022-11-24T12:21:26.023Z,12.10
2022-11-24T12:23:57.544Z,11.50
2022-11-24T12:29:48.286Z,13.50
2022-11-24T12:32:50.450Z,10.50
2022-11-24T12:35:36.267Z,20.80
2022-11-24T12:38:23.087Z,21.60
2022-11-24T12:41:40.541Z,37.10
2022-11-24T12:44:27.291Z,18.20
2022-11-24T12:47:10.245Z,11.50
2022-11-24T12:50:14.564Z,10.50
2022-11-24T12:52:45.558Z,9.10
2022-11-24T12:55:23.755Z,9.20
2022-11-24T12:58:07.804Z,9.90
2022-11-24T13:01:11.563Z,12.10
2022-11-24T13:03:54.959Z,14.60
2022-11-24T13:06:29.572Z,12.80
2022-11-24T13:08:57.769Z,13.60
2022-11-24T13:11:36.898Z,14.70
2022-11-24T13:14:26.510Z,15.30
2022-11-24T13:17:28.053Z,14.80
2022-11-24T13:19:48.567Z,18.10
2022-11-24T13:22:26.476Z,13.50
2022-11-24T13:25:14.735Z,11.80
2022-11-24T13:27:45.710Z,14.70
2022-11-24T13:30:35.473Z,12.80
2022-11-24T13:33:16.455Z,12.00
2022-11-24T13:36:04.395Z,12.90
2022-11-24T13:38:51.432Z,16.80
2022-11-24T13:41:31.504Z,17.40
2022-11-24T13:44:14.933Z,23.30
2022-11-24T13:47:06.695Z,25.70
2022-11-24T13:49:38.916Z,17.70
2022-11-24T13:52:34.624Z,16.30
2022-11-24T13:55:21.844Z,12.30
2022-11-24T13:58:00.524Z,10.90
2022-11-24T14:00:32.120Z,22.00
2022-11-24T14:03:15.395Z,27.20
2022-11-24T14:05:50.666Z,29.30
2022-11-24T14:08:26.298Z,21.60
2022-11-24T14:10:56.525Z,16.20
2022-11-24T14:13:30.826Z,15.80
2022-11-24T14:16:03.114Z,17.00
2022-11-24T14:18:32.402Z,18.90
2022-11-24T14:21:27.902Z,19.00
2022-11-24T14:24:17.017Z,19.80
2022-11-24T14:26:46.182Z,29.00
2022-11-24T14:29:20.379Z,24.40
2022-11-24T14:31:57.111Z,20.80
2022-11-24T14:34:28.045Z,20.80
2022-11-24T14:36:57.228Z,27.60
2022-11-24T14:39:27.067Z,19.20
2022-11-24T14:42:07.991Z,34.80
2022-11-24T14:44:42.066Z,49.10
2022-11-24T14:47:32.033Z,35.80
2022-11-24T14:50:27.182Z,27.50
2022-11-24T14:52:57.143Z,22.80
2022-11-24T14:55:33.053Z,22.40
2022-11-24T14:58:01.027Z,17.70
2022-11-24T15:00:31.728Z,19.30
2022-11-24T15:03:02.405Z,25.20
2022-11-24T15:05:50.854Z,67.90
2022-11-24T15:08:18.826Z,75.30
2022-11-24T15:10:46.977Z,44.90
2022-11-24T15:13:19.998Z,40.50
2022-11-24T15:15:51.998Z,28.10
2022-11-24T15:18:43.218Z,22.10
2022-11-24T15:21:18.569Z,24.00
2022-11-24T15:24:06.130Z,29.70
2022-11-24T15:26:38.512Z,36.40
2022-11-24T15:29:13.300Z,29.40
2022-11-24T15:31:44.198Z,28.50
2022-11-24T15:34:15.771Z,26.60
2022-11-24T15:36:43.621Z,24.60
2022-11-24T15:39:11.551Z,22.20
2022-11-24T15:41:40.733Z,31.90
2022-11-24T15:44:10.236Z,34.40
2022-11-24T15:46:39.557Z,36.40
2022-11-24T15:49:07.567Z,29.90
2022-11-24T15:51:36.126Z,27.50
2022-11-24T15:54:04.090Z,29.80
2022-11-24T15:56:34.743Z,24.60
2022-11-24T15:59:04.695Z,21.50
2022-11-24T16:01:34.472Z,21.40
2022-11-24T16:04:03.060Z,25.90
2022-11-24T16:06:31.125Z,26.10
2022-11-24T16:08:59.138Z,26.90
2022-11-24T16:11:27.665Z,25.10
2022-11-24T16:13:55.591Z,22.20
2022-11-24T16:16:25.405Z,24.40
2022-11-24T16:18:53.389Z,24.40
2022-11-24T16:21:21.390Z,17.80
2022-11-24T16:23:49.254Z,20.20
2022-11-24T16:26:17.275Z,23.40
2022-11-24T16:28:45.905Z,21.80
2022-11-24T16:31:16.022Z,23.00
2022-11-24T16:33:46.422Z,24.40
2022-11-24T16:36:14.406Z,21.00
2022-11-24T16:38:42.537Z,25.50
2022-11-24T16:41:10.674Z,24.60
2022-11-24T16:43:39.061Z,29.70
2022-11-24T16:46:07.015Z,31.10
2022-11-24T16:48:37.967Z,26.90
2022-11-24T16:51:07.109Z,26.50
2022-11-24T16:53:35.091Z,21.40
2022-11-24T16:56:03.700Z,20.80
2022-11-24T16:58:31.715Z,23.00
2022-11-24T17:01:04.982Z,22.90
2022-11-24T17:03:34.122Z,18.40
2022-11-24T17:06:02.196Z,20.20
2022-11-24T17:08:39.402Z,24.60
2022-11-24T17:11:14.831Z,24.60
2022-11-24T17:13:43.558Z,28.60
2022-11-24T17:16:14.111Z,27.10
2022-11-24T17:18:42.989Z,28.80
2022-11-24T17:21:22.256Z,32.10
2022-11-24T17:23:58.042Z,30.80
2022-11-24T17:26:27.114Z,161.80
2022-11-24T17:28:56.257Z,69.90
2022-11-24T17:31:27.354Z,34.30
2022-11-24T17:33:57.252Z,45.10
2022-11-24T17:36:26.309Z,48.00
2022-11-24T17:38:54.475Z,51.40
2022-11-24T17:41:23.298Z,40.40
2022-11-24T17:43:53.209Z,44.70
2022-11-24T17:46:21.458Z,40.30
2022-11-24T17:48:50.139Z,31.70
2022-11-24T17:51:20.467Z,35.50
2022-11-24T17:53:50.554Z,34.30
2022-11-24T17:56:23.531Z,38.70
2022-11-24T17:58:57.260Z,39.50
2022-11-24T18:01:28.700Z,47.00
2022-11-24T18:03:58.130Z,38.30
2022-11-24T18:06:28.707Z,54.30
2022-11-24T18:08:57.962Z,76.50
2022-11-24T18:11:32.001Z,41.40
2022-11-24T18:14:03.802Z,37.80
2022-11-24T18:16:34.584Z,37.10
2022-11-24T18:19:08.674Z,37.70
2022-11-24T18:21:41.220Z,37.70
2022-11-24T18:24:10.624Z,35.30
2022-11-24T18:26:40.472Z,38.70
2022-11-24T18:29:09.453Z,34.40
2022-11-24T18:31:38.302Z,30.30
2022-11-24T18:34:07.004Z,33.50
2022-11-24T18:36:35.179Z,34.00
2022-11-24T18:39:05.479Z,60.10
2022-11-24T18:41:34.885Z,51.40
2022-11-24T18:44:07.673Z,35.70
2022-11-24T18:46:36.803Z,57.30
2022-11-24T18:49:07.315Z,35.00
2022-11-24T18:51:36.028Z,37.80
2022-11-24T18:54:05.586Z,29.50
2022-11-24T18:56:34.124Z,36.40
2022-11-24T18:59:02.180Z,37.80
2022-11-24T19:01:30.291Z,40.40
2022-11-24T19:04:00.690Z,34.50
2022-11-24T19:06:32.519Z,33.30
2022-11-24T19:09:13.070Z,32.50
2022-11-24T19:11:43.489Z,37.40
2022-11-24T19:14:14.572Z,31.40
2022-11-24T19:16:43.253Z,35.20
2022-11-24T19:19:12.792Z,38.70
2022-11-24T19:21:41.251Z,32.80
2022-11-24T19:24:10.293Z,34.60
2022-11-24T19:26:39.475Z,30.10
2022-11-24T19:29:08.015Z,33.80
2022-11-24T19:31:38.459Z,34.80
2022-11-24T19:34:09.084Z,47.60
2022-11-24T19:36:37.705Z,67.10
2022-11-24T19:39:05.735Z,77.90
2022-11-24T19:41:34.606Z,59.90
2022-11-24T19:44:02.677Z,36.50
2022-11-24T19:46:30.731Z,30.80
2022-11-24T19:49:00.904Z,30.50
2022-11-24T19:51:32.168Z,28.50
2022-11-24T19:54:00.711Z,26.10
2022-11-24T19:56:31.463Z,28.90
2022-11-24T19:58:59.587Z,29.40
2022-11-24T20:01:33.537Z,32.20
2022-11-24T20:04:05.010Z,32.90
2022-11-24T20:06:36.871Z,29.00
2022-11-24T20:09:07.621Z,26.40
2022-11-24T20:11:35.615Z,26.00
2022-11-24T20:14:04.499Z,21.90
2022-11-24T20:16:33.719Z,17.80
2022-11-24T20:19:07.586Z,23.30
2022-11-24T20:21:37.826Z,25.20
2022-11-24T20:24:15.424Z,24.20
2022-11-24T20:26:46.866Z,29.50
2022-11-24T20:29:15.657Z,23.00
2022-11-24T20:31:46.816Z,25.40
2022-11-24T20:36:45.612Z,23.80
2022-11-24T20:39:17.259Z,25.50
2022-11-24T20:41:45.204Z,22.10
2022-11-24T20:44:16.184Z,22.10
2022-11-24T20:49:18.761Z,22.20
2022-11-24T20:51:54.313Z,20.40
2022-11-24T20:54:22.891Z,22.80
2022-11-24T20:56:50.960Z,22.10
2022-11-24T20:59:22.569Z,23.50
2022-11-24T21:01:51.965Z,24.80
2022-11-24T21:04:22.632Z,25.00
2022-11-24T21:06:50.827Z,26.50
2022-11-24T21:09:19.426Z,24.90
2022-11-24T21:11:48.241Z,22.00
2022-11-24T21:14:16.877Z,27.10
2022-11-24T21:16:44.902Z,22.70
2022-11-24T21:19:17.652Z,23.90
2022-11-24T21:21:47.770Z,25.10
2022-11-24T21:24:19.365Z,24.20
2022-11-24T21:29:19.254Z,23.70
2022-11-24T21:34:18.599Z,23.50
2022-11-24T21:36:47.296Z,24.80
2022-11-24T21:39:16.370Z,22.10
2022-11-24T21:41:44.819Z,23.30
2022-11-24T21:44:13.767Z,28.00
2022-11-24T21:46:48.117Z,25.90
2022-11-24T21:49:19.055Z,25.60
2022-11-24T21:51:47.513Z,29.00
2022-11-24T21:54:15.618Z,26.30
2022-11-24T21:56:43.628Z,23.70
2022-11-24T21:59:11.485Z,23.70
2022-11-24T22:01:39.590Z,27.10
2022-11-24T22:04:07.686Z,29.00
2022-11-24T22:06:35.866Z,27.20
2022-11-24T22:09:03.917Z,25.90
2022-11-24T22:11:31.791Z,23.50
2022-11-24T22:13:59.866Z,27.80
2022-11-24T22:16:28.193Z,21.90
2022-11-24T22:18:56.231Z,26.80
2022-11-24T22:21:30.155Z,27.30
2022-11-24T22:23:58.187Z,25.70
2022-11-24T22:26:27.697Z,27.50
2022-11-24T22:28:57.287Z,27.00
2022-11-24T22:31:27.716Z,25.00
2022-11-24T22:33:57.140Z,27.00
2022-11-24T22:36:27.822Z,26.10
2022-11-24T22:39:03.829Z,29.50
2022-11-24T22:41:34.048Z,25.90
2022-11-24T22:44:02.601Z,27.20
2022-11-24T22:46:32.064Z,28.40
2022-11-24T22:49:01.728Z,24.00
2022-11-24T22:51:33.019Z,25.40
2022-11-24T22:54:04.134Z,29.50
2022-11-24T22:56:33.528Z,27.20
2022-11-24T22:59:02.631Z,23.70
2022-11-24T23:01:32.129Z,27.60
2022-11-24T23:04:00.382Z,24.90
2022-11-24T23:06:31.205Z,23.40
2022-11-24T23:09:00.937Z,28.10
2022-11-24T23:11:37.239Z,22.50
2022-11-24T23:14:14.172Z,27.50
2022-11-24T23:16:42.872Z,23.30
2022-11-24T23:19:10.999Z,23.60
2022-11-24T23:21:39.098Z,24.80
2022-11-24T23:24:08.705Z,23.00
2022-11-24T23:26:39.733Z,21.30
2022-11-24T23:29:08.142Z,24.10
2022-11-24T23:31:39.779Z,25.60
2022-11-24T23:34:08.178Z,27.50
2022-11-24T23:36:36.146Z,35.50
2022-11-24T23:39:11.600Z,27.70
2022-11-24T23:41:40.078Z,23.10
2022-11-24T23:44:09.076Z,22.70
2022-11-24T23:46:37.338Z,25.00
2022-11-24T23:49:05.281Z,22.80
2022-11-24T23:51:33.845Z,23.60
2022-11-24T23:54:02.171Z,23.40
2022-11-24T23:56:32.756Z,23.60
